Terminal Aerodrome Forecast
Issued by NWS Corpus Christi, TX

Home | Current Version | Previous Version | Text Only | Print | Product List | Glossary On
Versions: 1 2 3 4 5 6 7 8 9 10 11 12 13 14 15
000
FTUS44 KCRP 210534
TAFVCT
TAF
KVCT 210534Z 2106/2206 15007KT P6SM FEW018
     FM211100 VRB03KT 5SM BR VCSH SCT008 SCT050
     FM211400 12007KT P6SM SCT025 BKN050 PROB30 2116/2121 -TSRA
      BKN035CB
     FM220000 13008KT P6SM FEW040=

USA.gov is the U.S. government's official web portal to all federal, state and local government web resources and services.